Time;durP1;ratioP1;P1;durP2;ratioP2;P2;SDS_P1;SDS_P2;PMS_P1;PMS_P2;Temp;Humidity;BMP_temperature;BMP_pressure;BME280_temperature;BME280_humidity;BME280_pressure;Samples;Min_cycle;Max_cycle;Signal;HPM_P1;HPM_P2
2022/05/05 00:00:06;;;;;;;7.55;3.75;;;4.30;99.90;;;;;;5207863;28;20496;-77
2022/05/05 00:02:37;;;;;;;6.32;4.45;;;4.10;99.90;;;;;;5207514;28;20398;-77
2022/05/05 00:05:08;;;;;;;5.72;3.83;;;4.30;99.90;;;;;;5207718;28;20024;-77
2022/05/05 00:07:39;;;;;;;10.20;4.43;;;4.00;99.90;;;;;;5207673;28;20029;-77
2022/05/05 00:15:48;;;;;;;5.53;3.88;;;4.10;99.90;;;;;;5207653;28;20452;-77
2022/05/05 00:18:19;;;;;;;6.60;4.25;;;4.10;99.90;;;;;;5207774;28;20104;-77
2022/05/05 00:20:50;;;;;;;7.43;4.60;;;4.00;99.90;;;;;;5207659;28;20060;-77
2022/05/05 00:23:21;;;;;;;6.25;4.03;;;3.90;99.90;;;;;;5207505;28;20087;-76
2022/05/05 00:25:51;;;;;;;5.60;4.03;;;4.30;99.90;;;;;;5207102;28;20064;-76
2022/05/05 00:28:22;;;;;;;7.82;4.18;;;4.90;99.90;;;;;;5207127;28;20393;-77
2022/05/05 00:30:53;;;;;;;6.13;4.32;;;4.50;99.90;;;;;;5207394;28;20394;-77
2022/05/05 00:33:25;;;;;;;6.63;4.65;;;4.20;99.90;;;;;;5207050;28;20045;-76
2022/05/05 00:35:56;;;;;;;7.28;4.50;;;4.00;99.90;;;;;;5207335;28;20075;-77
2022/05/05 00:38:27;;;;;;;7.15;4.63;;;4.40;99.90;;;;;;5207012;28;20125;-77
2022/05/05 00:40:58;;;;;;;6.38;4.35;;;4.40;99.90;;;;;;5207277;28;20037;-76
2022/05/05 00:43:30;;;;;;;5.50;4.10;;;4.60;99.90;;;;;;5206942;28;20389;-76
2022/05/05 00:46:04;;;;;;;5.63;4.20;;;4.40;99.90;;;;;;5206764;28;20025;-77
2022/05/05 00:48:34;;;;;;;7.15;4.10;;;4.50;99.90;;;;;;5207005;28;20030;-78
2022/05/05 00:51:06;;;;;;;6.38;4.22;;;4.70;99.90;;;;;;5206922;28;20024;-77
2022/05/05 00:53:37;;;;;;;7.43;4.45;;;4.60;99.90;;;;;;5206828;28;20037;-76
2022/05/05 00:56:11;;;;;;;6.28;4.13;;;4.80;99.90;;;;;;5206877;28;20034;-77
2022/05/05 00:58:46;;;;;;;8.20;4.68;;;4.70;99.90;;;;;;5207119;28;20033;-76
2022/05/05 01:01:21;;;;;;;5.93;3.60;;;4.30;99.90;;;;;;5207093;28;20083;-76
2022/05/05 01:03:53;;;;;;;6.65;4.13;;;4.60;99.90;;;;;;5206943;28;20358;-77
2022/05/05 01:06:25;;;;;;;8.20;4.20;;;4.90;99.90;;;;;;5208859;28;20108;-77
2022/05/05 01:08:56;;;;;;;8.55;4.00;;;4.90;99.90;;;;;;5211419;28;20412;-77
2022/05/05 01:11:28;;;;;;;6.65;3.83;;;4.80;99.90;;;;;;5210835;28;20025;-77
2022/05/05 01:13:59;;;;;;;5.93;3.92;;;5.20;99.90;;;;;;5211127;28;20049;-76
2022/05/05 01:16:31;;;;;;;6.07;3.50;;;5.20;99.90;;;;;;5210736;28;20039;-77
2022/05/05 01:19:02;;;;;;;6.53;3.50;;;5.10;99.90;;;;;;5210707;28;20025;-77
2022/05/05 01:21:32;;;;;;;6.25;3.65;;;5.00;99.90;;;;;;5210674;28;20036;-76
2022/05/05 01:24:03;;;;;;;8.27;3.55;;;5.20;99.90;;;;;;5209322;28;20026;-77
2022/05/05 01:29:24;;;;;;;5.75;3.20;;;5.20;99.90;;;;;;5210911;28;20052;-77
2022/05/05 01:31:57;;;;;;;4.70;3.47;;;5.00;99.90;;;;;;5210435;28;20131;-77
2022/05/05 01:34:29;;;;;;;5.13;3.38;;;5.10;99.90;;;;;;5210847;28;20021;-77
2022/05/05 01:36:59;;;;;;;8.07;3.60;;;4.90;99.90;;;;;;5210475;28;20035;-77
2022/05/05 01:39:30;;;;;;;5.80;3.75;;;5.20;99.90;;;;;;5210430;28;20025;-77
2022/05/05 01:42:01;;;;;;;4.50;3.10;;;5.10;99.90;;;;;;5210330;28;20033;-76
2022/05/05 01:44:32;;;;;;;8.52;4.00;;;5.50;99.90;;;;;;5210319;28;20029;-76
2022/05/05 01:47:03;;;;;;;7.50;3.70;;;5.20;99.90;;;;;;5210170;28;20358;-76
2022/05/05 01:49:34;;;;;;;7.22;3.70;;;4.70;99.90;;;;;;5209154;28;20058;-77
2022/05/05 01:52:10;;;;;;;5.70;3.80;;;4.60;99.90;;;;;;5210304;28;20017;-77
2022/05/05 01:54:41;;;;;;;9.10;3.50;;;4.60;99.90;;;;;;5210088;28;20450;-76
2022/05/05 01:57:12;;;;;;;8.65;3.95;;;4.50;99.90;;;;;;5209955;28;20076;-75
2022/05/05 01:59:43;;;;;;;6.90;3.70;;;4.40;99.90;;;;;;5210224;28;20435;-76
2022/05/05 02:02:13;;;;;;;5.82;4.03;;;4.60;99.90;;;;;;5209842;28;20041;-76
2022/05/05 02:04:44;;;;;;;8.75;3.85;;;4.30;99.90;;;;;;5209918;28;20021;-77
2022/05/05 02:07:15;;;;;;;7.38;4.53;;;4.30;99.90;;;;;;5209846;28;20022;-78
2022/05/05 02:09:46;;;;;;;6.35;4.00;;;4.20;99.90;;;;;;5209858;28;20032;-76
2022/05/05 02:12:16;;;;;;;6.97;4.25;;;3.90;99.90;;;;;;5209783;28;20029;-76
2022/05/05 02:14:47;;;;;;;5.88;3.78;;;4.00;99.90;;;;;;5210071;28;20026;-76
2022/05/05 02:17:18;;;;;;;6.65;3.80;;;4.60;99.90;;;;;;5208397;28;20112;-77
2022/05/05 02:19:49;;;;;;;6.47;3.75;;;4.60;99.90;;;;;;5209773;28;20029;-77
2022/05/05 02:22:20;;;;;;;5.75;3.45;;;4.40;99.90;;;;;;5209497;28;20563;-77
2022/05/05 02:24:51;;;;;;;6.13;3.53;;;4.70;99.90;;;;;;5209545;28;20025;-77
2022/05/05 02:27:22;;;;;;;5.15;3.72;;;4.40;99.90;;;;;;5209173;28;20125;-77
2022/05/05 02:29:53;;;;;;;7.60;3.53;;;4.80;99.90;;;;;;5209511;28;20034;-77
2022/05/05 02:32:24;;;;;;;5.22;3.55;;;4.30;99.90;;;;;;5209319;28;20024;-77
2022/05/05 02:34:59;;;;;;;8.02;4.00;;;3.90;99.90;;;;;;5224349;28;20385;-78
2022/05/05 02:40:27;;;;;;;6.95;4.50;;;4.20;99.90;;;;;;5208864;28;20028;-78
2022/05/05 02:43:10;;;;;;;6.78;4.47;;;4.50;99.90;;;;;;5208915;28;20064;-78
2022/05/05 02:45:41;;;;;;;8.57;5.03;;;4.80;99.90;;;;;;5208861;28;20047;-77
2022/05/05 02:48:12;;;;;;;6.97;4.15;;;4.70;99.90;;;;;;5209164;28;20100;-76
2022/05/05 02:50:42;;;;;;;7.75;4.28;;;4.90;99.90;;;;;;5209040;28;20113;-77
2022/05/05 02:56:02;;;;;;;6.10;3.83;;;4.70;99.90;;;;;;5208864;28;20087;-77
2022/05/05 02:58:33;;;;;;;8.23;4.40;;;5.20;99.90;;;;;;5208957;28;20033;-78
2022/05/05 03:01:04;;;;;;;6.65;4.13;;;4.90;99.90;;;;;;5208843;28;20060;-76
2022/05/05 03:03:38;;;;;;;8.85;4.13;;;5.00;99.90;;;;;;5208478;28;20026;-76
2022/05/05 03:06:08;;;;;;;8.77;5.25;;;4.60;99.90;;;;;;5208756;28;20461;-76
2022/05/05 03:08:39;;;;;;;10.70;5.60;;;4.50;99.90;;;;;;5208928;28;20071;-77
2022/05/05 03:11:10;;;;;;;11.93;6.43;;;4.60;99.90;;;;;;5209016;28;20044;-76
2022/05/05 03:13:41;;;;;;;8.98;5.65;;;4.50;99.90;;;;;;5208577;28;20025;-77
2022/05/05 03:16:12;;;;;;;9.68;5.75;;;4.60;99.90;;;;;;5208374;28;20810;-78
2022/05/05 03:18:42;;;;;;;9.25;5.53;;;4.60;99.90;;;;;;5207289;28;20029;-77
2022/05/05 03:21:13;;;;;;;9.52;5.10;;;4.70;99.90;;;;;;5208529;28;20057;-78
2022/05/05 03:23:44;;;;;;;8.60;4.15;;;4.50;99.90;;;;;;5208174;28;20163;-78
2022/05/05 03:26:15;;;;;;;8.00;4.32;;;4.50;99.90;;;;;;5208359;28;20037;-78
2022/05/05 03:28:46;;;;;;;5.25;4.20;;;4.30;99.90;;;;;;5223260;28;20084;-77
2022/05/05 03:31:17;;;;;;;7.28;4.65;;;4.20;99.90;;;;;;5208370;28;20078;-78
2022/05/05 03:33:48;;;;;;;9.95;4.53;;;4.40;99.90;;;;;;5208183;28;20022;-76
2022/05/05 03:36:19;;;;;;;7.00;4.03;;;4.50;99.90;;;;;;5208260;28;20116;-76
2022/05/05 03:38:50;;;;;;;6.18;4.20;;;4.70;99.90;;;;;;5208217;28;20025;-78
2022/05/05 03:41:22;;;;;;;6.00;4.13;;;4.60;99.90;;;;;;5208237;28;20040;-77
2022/05/05 03:43:52;;;;;;;8.07;4.20;;;4.80;99.90;;;;;;5208234;28;20052;-78
2022/05/05 03:46:24;;;;;;;7.63;4.25;;;4.80;99.90;;;;;;5207867;28;20025;-77
2022/05/05 03:48:56;;;;;;;6.07;4.13;;;5.00;99.90;;;;;;5208072;28;20026;-78
2022/05/05 03:51:27;;;;;;;6.20;4.28;;;5.00;99.90;;;;;;5208185;28;20374;-77
2022/05/05 03:53:58;;;;;;;15.70;7.75;;;5.10;99.90;;;;;;5207784;28;20078;-78
2022/05/05 03:56:29;;;;;;;28.17;13.70;;;4.90;99.90;;;;;;5223068;28;20033;-78
2022/05/05 03:58:59;;;;;;;20.20;11.23;;;5.30;99.90;;;;;;5208058;28;20513;-76
2022/05/05 04:01:30;;;;;;;16.80;10.20;;;5.50;99.90;;;;;;5207828;28;20493;-77
2022/05/05 04:04:01;;;;;;;19.20;11.70;;;5.50;99.90;;;;;;5207863;28;20057;-76
2022/05/05 04:06:32;;;;;;;24.02;12.75;;;5.70;99.90;;;;;;5206144;28;20030;-77
2022/05/05 04:09:05;;;;;;;18.80;11.95;;;5.90;99.90;;;;;;5207792;28;20373;-77
2022/05/05 04:11:36;;;;;;;11.73;6.93;;;5.90;99.90;;;;;;5207481;28;20049;-79
2022/05/05 04:14:07;;;;;;;11.07;6.43;;;6.10;99.90;;;;;;5207743;28;20027;-78
2022/05/05 04:16:38;;;;;;;12.63;6.50;;;6.50;99.90;;;;;;5207482;28;20037;-77
2022/05/05 04:19:10;;;;;;;18.05;6.72;;;6.50;99.90;;;;;;5207475;28;20025;-78
2022/05/05 04:21:40;;;;;;;16.27;7.68;;;6.50;99.90;;;;;;5207291;28;20040;-78
2022/05/05 04:24:11;;;;;;;10.35;7.28;;;6.40;99.90;;;;;;5207576;28;20025;-77
2022/05/05 04:26:44;;;;;;;11.43;6.80;;;6.80;99.90;;;;;;5207069;28;20030;-76
2022/05/05 04:29:14;;;;;;;11.85;7.70;;;6.80;99.90;;;;;;5207664;28;20117;-78
2022/05/05 04:31:45;;;;;;;17.52;10.07;;;7.00;99.90;;;;;;5207422;28;20128;-78
2022/05/05 04:34:16;;;;;;;16.73;8.27;;;7.10;99.90;;;;;;5207075;28;20026;-79
2022/05/05 04:36:49;;;;;;;19.40;7.45;;;7.20;99.90;;;;;;5207387;28;20034;-78
2022/05/05 04:39:20;;;;;;;14.00;7.35;;;7.40;99.90;;;;;;5207090;28;20060;-79
2022/05/05 04:41:50;;;;;;;11.18;7.53;;;7.70;99.90;;;;;;5207033;28;20120;-77
2022/05/05 04:44:21;;;;;;;11.27;6.57;;;7.90;99.90;;;;;;5207171;28;20021;-77
2022/05/05 04:46:52;;;;;;;8.18;5.90;;;8.00;99.90;;;;;;5206855;28;20473;-76
2022/05/05 04:49:23;;;;;;;11.15;6.43;;;8.30;99.90;;;;;;5206903;28;20108;-77
2022/05/05 04:51:54;;;;;;;9.18;5.25;;;8.20;99.90;;;;;;5207299;28;20087;-79
2022/05/05 04:54:24;;;;;;;8.77;5.15;;;8.50;99.90;;;;;;5207119;28;20442;-76
2022/05/05 04:56:55;;;;;;;10.25;5.50;;;8.50;99.90;;;;;;5206837;28;20056;-79
2022/05/05 04:59:27;;;;;;;6.95;4.78;;;8.90;99.90;;;;;;5206836;28;20025;-79
2022/05/05 05:01:57;;;;;;;10.43;5.03;;;9.20;99.90;;;;;;5206644;28;20087;-76
2022/05/05 05:04:28;;;;;;;10.68;5.18;;;9.40;99.90;;;;;;5205685;28;20021;-79
2022/05/05 05:06:59;;;;;;;9.05;4.40;;;9.50;99.90;;;;;;5206804;28;20057;-79
2022/05/05 05:09:30;;;;;;;7.95;4.22;;;9.70;99.90;;;;;;5207075;28;20033;-79
2022/05/05 05:12:01;;;;;;;7.55;5.03;;;9.60;99.90;;;;;;5206745;28;20072;-77
2022/05/05 05:14:32;;;;;;;7.45;5.20;;;10.00;99.90;;;;;;5206771;28;20032;-78
2022/05/05 05:17:03;;;;;;;7.20;4.53;;;10.10;99.90;;;;;;5206652;28;20029;-77
2022/05/05 05:19:34;;;;;;;6.63;4.20;;;9.90;99.90;;;;;;5206722;28;20377;-76
2022/05/05 05:22:05;;;;;;;6.57;4.28;;;10.30;99.90;;;;;;5206364;28;20044;-78
2022/05/05 05:24:37;;;;;;;7.63;4.80;;;10.60;99.90;;;;;;5206768;28;20029;-79
2022/05/05 05:27:08;;;;;;;8.30;4.93;;;11.00;99.90;;;;;;5206407;28;20033;-76
2022/05/05 05:29:39;;;;;;;7.72;4.55;;;11.30;99.90;;;;;;5206685;28;20026;-80
2022/05/05 05:32:10;;;;;;;7.78;4.30;;;11.60;99.90;;;;;;5206722;28;20408;-77
2022/05/05 05:34:41;;;;;;;8.65;4.20;;;11.90;99.90;;;;;;5206407;28;20539;-78
2022/05/05 05:37:11;;;;;;;5.90;3.28;;;11.70;99.90;;;;;;5206560;28;20087;-79
2022/05/05 05:39:42;;;;;;;7.13;3.60;;;11.70;99.90;;;;;;5206682;28;20029;-77
2022/05/05 05:42:13;;;;;;;5.68;3.20;;;12.40;99.90;;;;;;5206153;28;20120;-77
2022/05/05 05:44:44;;;;;;;4.65;3.05;;;12.70;99.90;;;;;;5206482;28;20029;-77
2022/05/05 05:47:15;;;;;;;5.47;3.30;;;12.90;99.90;;;;;;5206468;28;20096;-79
2022/05/05 05:49:46;;;;;;;6.10;3.55;;;13.00;99.90;;;;;;5206240;28;20032;-79
2022/05/05 05:52:17;;;;;;;4.05;2.72;;;13.00;99.90;;;;;;5209093;28;20390;-79
2022/05/05 05:54:48;;;;;;;6.68;3.00;;;13.40;99.90;;;;;;5210225;28;20030;-79
2022/05/05 05:57:18;;;;;;;5.15;3.13;;;13.30;99.90;;;;;;5209820;28;20025;-79
2022/05/05 05:59:49;;;;;;;6.40;2.90;;;14.10;99.90;;;;;;5209992;28;20026;-78
2022/05/05 06:05:09;;;;;;;5.30;2.63;;;13.50;99.90;;;;;;5210148;28;20123;-79
2022/05/05 06:07:40;;;;;;;8.10;2.65;;;14.40;99.90;;;;;;5210000;28;20061;-79
2022/05/05 06:10:11;;;;;;;5.72;2.78;;;14.30;99.90;;;;;;5209709;28;20029;-79
2022/05/05 06:12:42;;;;;;;3.47;2.47;;;14.80;99.90;;;;;;5209574;28;20485;-78
2022/05/05 06:15:13;;;;;;;4.43;2.58;;;;;;;;;;5209428;28;20040;-76
2022/05/05 06:17:44;;;;;;;5.47;2.97;;;;;;;;;;5209697;28;20056;-78
2022/05/05 06:20:15;;;;;;;3.75;2.20;;;15.40;99.90;;;;;;5209636;28;20025;-76
2022/05/05 06:22:46;;;;;;;7.43;2.97;;;15.40;99.90;;;;;;5209449;28;20044;-77
2022/05/05 06:25:19;;;;;;;3.45;2.40;;;15.50;99.90;;;;;;5209528;28;20029;-79
2022/05/05 06:27:50;;;;;;;4.70;2.75;;;15.50;99.90;;;;;;5209119;28;20060;-79
2022/05/05 06:30:21;;;;;;;6.60;2.53;;;15.80;99.90;;;;;;5209538;28;20108;-79
2022/05/05 06:32:52;;;;;;;4.57;2.40;;;15.70;99.90;;;;;;5209412;28;20152;-76
2022/05/05 06:35:23;;;;;;;5.97;2.22;;;16.00;99.90;;;;;;5209346;28;20029;-76
2022/05/05 06:37:54;;;;;;;3.70;2.30;;;16.10;99.90;;;;;;5209032;28;20041;-77
2022/05/05 06:40:25;;;;;;;3.17;1.98;;;16.50;99.90;;;;;;5209198;28;20366;-78
2022/05/05 06:42:56;;;;;;;4.78;2.35;;;16.50;99.90;;;;;;5209047;28;20033;-81
2022/05/05 06:45:27;;;;;;;5.32;2.53;;;16.60;99.90;;;;;;5208891;28;20037;-79
2022/05/05 06:47:58;;;;;;;5.93;2.38;;;16.70;99.90;;;;;;5208901;28;20354;-79
2022/05/05 06:50:29;;;;;;;3.70;2.08;;;16.60;99.90;;;;;;5209162;28;20592;-77
2022/05/05 06:53:00;;;;;;;3.45;1.92;;;17.50;99.90;;;;;;5209046;28;20119;-77
2022/05/05 06:55:31;;;;;;;2.88;1.98;;;17.50;99.90;;;;;;5208883;28;20025;-77
2022/05/05 06:58:02;;;;;;;3.50;2.10;;;17.50;99.90;;;;;;5208795;28;20025;-77
2022/05/05 07:03:22;;;;;;;2.83;1.67;;;18.00;99.90;;;;;;5208382;28;20048;-77
2022/05/05 07:05:53;;;;;;;3.17;1.70;;;17.60;99.90;;;;;;5208848;28;20034;-78
2022/05/05 07:08:24;;;;;;;2.03;1.67;;;18.10;99.90;;;;;;5209058;28;20119;-78
2022/05/05 07:10:55;;;;;;;3.72;1.65;;;18.30;99.90;;;;;;5209137;28;20018;-77
2022/05/05 07:13:25;;;;;;;4.05;1.73;;;18.10;99.90;;;;;;5208762;28;20061;-79
2022/05/05 07:15:56;;;;;;;2.38;1.70;;;18.30;99.90;;;;;;5208600;28;20025;-78
2022/05/05 07:18:27;;;;;;;4.82;2.20;;;18.10;99.90;;;;;;5208569;28;20469;-79
2022/05/05 07:20:58;;;;;;;4.47;2.85;;;17.90;99.90;;;;;;5208367;28;20038;-78
2022/05/05 07:23:29;;;;;;;3.53;1.98;;;18.60;99.90;;;;;;5208420;28;20029;-78
2022/05/05 07:25:59;;;;;;;2.40;1.88;;;18.80;99.90;;;;;;5208324;28;20033;-78
2022/05/05 07:28:30;;;;;;;3.75;1.80;;;18.70;99.90;;;;;;5208430;28;20050;-78
2022/05/05 07:31:01;;;;;;;5.05;1.83;;;18.80;99.90;;;;;;5208302;28;20037;-77
2022/05/05 07:33:34;;;;;;;3.40;2.05;;;18.60;99.90;;;;;;5207012;28;20032;-76
2022/05/05 07:36:05;;;;;;;4.30;1.75;;;18.40;99.90;;;;;;5223582;28;20040;-76
2022/05/05 07:38:36;;;;;;;3.40;1.75;;;18.20;99.90;;;;;;5208257;28;20013;-76
2022/05/05 07:41:07;;;;;;;5.13;1.63;;;18.30;99.90;;;;;;5208240;28;20036;-78
2022/05/05 07:43:38;;;;;;;3.35;1.52;;;18.30;99.90;;;;;;5207911;28;20831;-77
2022/05/05 07:46:09;;;;;;;2.53;1.63;;;18.50;99.90;;;;;;5208236;28;20116;-77
2022/05/05 07:48:39;;;;;;;3.70;1.63;;;18.60;99.90;;;;;;5208030;28;20025;-77
2022/05/05 07:51:11;;;;;;;2.60;1.45;;;18.20;99.90;;;;;;5208211;28;20071;-76
2022/05/05 07:54:34;;;;;;;3.15;1.98;;;18.20;99.90;;;;;;5217593;28;20026;-78
2022/05/05 07:56:33;;;;;;;4.20;1.85;;;18.20;99.90;;;;;;5207922;28;20037;-88
2022/05/05 07:59:04;;;;;;;6.35;1.50;;;18.20;99.90;;;;;;5206706;28;20484;-76
2022/05/05 08:01:35;;;;;;;4.35;1.70;;;18.20;99.90;;;;;;5216326;28;20105;-77
2022/05/05 08:04:06;;;;;;;3.35;1.80;;;18.40;99.90;;;;;;5228228;28;20477;-76
2022/05/05 08:06:37;;;;;;;6.10;2.15;;;18.10;99.90;;;;;;5223527;28;20049;-76
2022/05/05 08:09:08;;;;;;;3.22;2.00;;;18.00;99.90;;;;;;5207861;28;20110;-76
2022/05/05 08:11:39;;;;;;;2.42;1.70;;;18.30;99.90;;;;;;5206332;28;20041;-77
2022/05/05 08:14:09;;;;;;;4.72;1.48;;;18.00;99.90;;;;;;5206934;28;20021;-76
2022/05/05 08:16:40;;;;;;;3.80;1.73;;;18.10;99.90;;;;;;5207096;28;20128;-80
2022/05/05 08:19:11;;;;;;;6.70;2.30;;;18.40;99.90;;;;;;5207608;28;20030;-76
2022/05/05 08:21:42;;;;;;;3.38;1.85;;;18.40;99.90;;;;;;5207214;28;20041;-76
2022/05/05 08:29:52;;;;;;;2.45;2.03;;;18.80;99.90;;;;;;5207722;28;20259;-77
2022/05/05 08:32:23;;;;;;;4.03;1.77;;;19.00;99.90;;;;;;5207165;28;20033;-77
2022/05/05 08:34:53;;;;;;;6.03;2.33;;;19.70;99.90;;;;;;5207277;28;20021;-77
2022/05/05 08:37:24;;;;;;;6.07;2.33;;;19.50;99.90;;;;;;5207424;28;20022;-79
2022/05/05 08:39:55;;;;;;;3.58;2.00;;;19.90;99.90;;;;;;5207293;28;20480;-79
2022/05/05 08:42:26;;;;;;;2.35;1.63;;;20.00;99.90;;;;;;5206922;28;20038;-77
2022/05/05 08:44:59;;;;;;;2.97;1.85;;;19.90;99.90;;;;;;5206779;28;20022;-77
2022/05/05 08:47:32;;;;;;;2.20;1.70;;;19.70;99.90;;;;;;5207040;28;20025;-77
2022/05/05 08:50:04;;;;;;;4.40;2.22;;;19.50;99.90;;;;;;5208156;28;20025;-79
2022/05/05 08:52:40;;;;;;;3.55;1.73;;;19.40;99.90;;;;;;5206594;28;20489;-77
2022/05/05 08:55:15;;;;;;;2.85;1.80;;;19.80;99.90;;;;;;5207991;28;20084;-77
2022/05/05 08:57:47;;;;;;;6.15;2.20;;;19.80;99.90;;;;;;5206857;28;20043;-76
2022/05/05 09:00:19;;;;;;;2.85;1.83;;;19.90;99.90;;;;;;5207020;28;20025;-78
2022/05/05 09:02:58;;;;;;;2.55;1.95;;;19.20;99.90;;;;;;5206616;28;20037;-77
2022/05/05 09:05:45;;;;;;;3.00;1.90;;;19.40;99.90;;;;;;5207060;28;20017;-79
2022/05/05 09:08:30;;;;;;;5.07;2.25;;;20.10;99.90;;;;;;5206743;28;20040;-76
2022/05/05 09:11:05;;;;;;;5.05;2.42;;;19.90;99.90;;;;;;5206620;28;20159;-78
2022/05/05 09:13:37;;;;;;;5.28;2.40;;;20.00;99.90;;;;;;5206858;28;20458;-79
2022/05/05 09:16:10;;;;;;;3.65;2.45;;;19.70;99.90;;;;;;5206614;28;20394;-76
2022/05/05 09:18:41;;;;;;;3.22;2.42;;;19.70;99.90;;;;;;5206631;28;20112;-77
2022/05/05 09:21:13;;;;;;;3.88;2.53;;;19.60;99.90;;;;;;5205756;28;20124;-79
2022/05/05 09:26:35;;;;;;;4.60;2.63;;;19.70;99.90;;;;;;5207103;28;20037;-77
2022/05/05 09:29:22;;;;;;;3.08;2.05;;;19.70;99.90;;;;;;5210136;28;20053;-77
2022/05/05 09:31:52;;;;;;;5.30;2.90;;;20.10;99.90;;;;;;5209792;28;20381;-78
2022/05/05 09:34:23;;;;;;;4.20;2.40;;;20.20;99.90;;;;;;5210100;28;20018;-76
2022/05/05 09:36:54;;;;;;;6.03;2.53;;;20.00;99.90;;;;;;5209887;28;20430;-77
2022/05/05 09:39:35;;;;;;;6.22;2.83;;;19.90;99.90;;;;;;5210020;28;20018;-76
2022/05/05 09:42:06;;;;;;;4.22;2.65;;;19.80;99.90;;;;;;5209931;28;20034;-76
2022/05/05 09:44:46;;;;;;;4.50;2.47;;;19.90;99.90;;;;;;5210036;28;20017;-76
2022/05/05 09:47:16;;;;;;;8.15;2.63;;;20.80;99.90;;;;;;5209997;28;20595;-76
2022/05/05 09:49:57;;;;;;;4.43;2.33;;;20.60;99.90;;;;;;5209997;28;20033;-76
2022/05/05 09:58:09;;;;;;;6.85;2.67;;;20.60;99.90;;;;;;5210074;28;20124;-77
2022/05/05 10:00:47;;;;;;;3.30;2.35;;;20.40;99.90;;;;;;5209690;28;20108;-76
2022/05/05 10:06:23;;;;;;;4.25;2.53;;;20.80;99.90;;;;;;5210059;28;20523;-77
2022/05/05 10:08:56;;;;;;;4.55;2.60;;;20.20;99.90;;;;;;5209614;28;20037;-77
2022/05/05 10:11:27;;;;;;;4.97;2.75;;;20.30;99.90;;;;;;5209443;28;20018;-76
2022/05/05 10:14:03;;;;;;;3.78;2.60;;;20.20;99.90;;;;;;5209383;28;20021;-76
2022/05/05 10:16:36;;;;;;;6.68;3.40;;;20.00;99.90;;;;;;5209394;28;20029;-76
2022/05/05 10:19:08;;;;;;;3.78;2.38;;;20.50;99.90;;;;;;5209302;28;20100;-77
2022/05/05 10:21:50;;;;;;;3.67;2.80;;;20.80;99.90;;;;;;5209170;28;20033;-80
2022/05/05 10:24:28;;;;;;;3.65;2.40;;;20.60;99.90;;;;;;5209399;28;20092;-76
2022/05/05 10:27:03;;;;;;;3.72;2.63;;;20.70;99.90;;;;;;5208906;28;20056;-76
2022/05/05 10:29:36;;;;;;;3.55;2.40;;;20.70;99.90;;;;;;5209165;28;20079;-78
2022/05/05 10:32:25;;;;;;;4.18;2.05;;;20.80;99.90;;;;;;5209146;28;20014;-76
2022/05/05 10:35:11;;;;;;;4.90;2.47;;;20.90;99.90;;;;;;5209112;28;20034;-76
2022/05/05 10:37:42;;;;;;;6.88;2.33;;;21.20;99.90;;;;;;5207960;28;20377;-76
2022/05/05 10:40:13;;;;;;;3.15;2.03;;;20.60;99.90;;;;;;5208918;28;20025;-76
2022/05/05 10:42:45;;;;;;;3.97;2.40;;;20.70;99.90;;;;;;5208701;28;20124;-76
2022/05/05 10:45:30;;;;;;;4.60;2.55;;;20.80;99.90;;;;;;5208752;28;20029;-76
2022/05/05 10:48:04;;;;;;;3.75;1.92;;;21.00;99.90;;;;;;5208863;28;20033;-79
2022/05/05 10:51:02;;;;;;;5.00;2.38;;;20.60;99.90;;;;;;5208759;28;20052;-77
2022/05/05 10:53:39;;;;;;;4.97;2.40;;;20.80;99.90;;;;;;5208664;28;20489;-76
2022/05/05 10:56:31;;;;;;;2.97;2.30;;;20.90;99.90;;;;;;5208684;28;20079;-76
2022/05/05 10:59:09;;;;;;;3.25;2.58;;;20.80;99.90;;;;;;5208665;28;20381;-76
2022/05/05 11:01:45;;;;;;;3.53;2.30;;;20.40;99.90;;;;;;5208354;28;20380;-80
2022/05/05 11:04:17;;;;;;;6.28;3.25;;;20.80;99.90;;;;;;5208501;28;20029;-76
2022/05/05 11:06:49;;;;;;;5.75;3.10;;;20.30;99.90;;;;;;5208332;28;20018;-76
2022/05/05 11:09:35;;;;;;;7.57;2.58;;;20.20;99.90;;;;;;5208361;28;20101;-79
2022/05/05 11:12:22;;;;;;;5.03;2.42;;;20.80;99.90;;;;;;5207097;28;20492;-77
2022/05/05 11:23:51;;;;;;;4.40;2.45;;;20.50;99.90;;;;;;5208389;28;20032;-76
2022/05/05 11:26:22;;;;;;;5.97;2.58;;;20.30;99.90;;;;;;5209988;28;20167;-78
2022/05/05 11:28:53;;;;;;;4.70;2.20;;;20.10;99.90;;;;;;5208132;28;20073;-81
2022/05/05 11:31:28;;;;;;;4.45;2.20;;;20.30;99.90;;;;;;5220553;28;20037;-76
2022/05/05 11:34:01;;;;;;;6.68;2.40;;;20.30;99.90;;;;;;5228840;28;20472;-76
2022/05/05 11:36:34;;;;;;;5.03;2.40;;;20.30;99.90;;;;;;5228741;28;20423;-76
2022/05/05 11:39:06;;;;;;;2.83;1.88;;;20.50;99.90;;;;;;5228650;28;20040;-78
2022/05/05 11:41:37;;;;;;;8.50;2.40;;;20.10;99.90;;;;;;5228571;28;20473;-76
2022/05/05 11:44:14;;;;;;;8.57;2.13;;;19.90;99.90;;;;;;5228549;28;20031;-76
2022/05/05 11:46:45;;;;;;;3.30;1.83;;;20.70;99.90;;;;;;5228531;28;20032;-77
2022/05/05 11:49:16;;;;;;;2.67;1.42;;;20.20;99.90;;;;;;5228321;28;20025;-77
2022/05/05 11:51:48;;;;;;;3.25;1.98;;;20.70;99.90;;;;;;5228366;28;20445;-88
2022/05/05 11:54:32;;;;;;;5.78;2.10;;;20.50;99.90;;;;;;5228300;28;20357;-80
2022/05/05 11:57:03;;;;;;;4.32;2.13;;;20.60;99.90;;;;;;5220242;28;20056;-80
2022/05/05 12:02:25;;;;;;;4.57;1.80;;;20.70;99.90;;;;;;5207632;28;20488;-76
2022/05/05 12:04:57;;;;;;;4.57;1.63;;;20.60;99.90;;;;;;5207064;28;20018;-75
2022/05/05 12:07:28;;;;;;;4.15;2.25;;;20.10;97.90;;;;;;5210468;28;20040;-84
2022/05/05 12:09:59;;;;;;;4.38;1.80;;;20.30;98.60;;;;;;5227984;28;20017;-74
2022/05/05 12:12:31;;;;;;;5.88;1.70;;;21.20;99.90;;;;;;5227892;28;20025;-81
2022/05/05 12:15:06;;;;;;;15.15;2.08;;;21.30;99.90;;;;;;5227632;28;20017;-75
2022/05/05 12:17:41;;;;;;;6.25;2.00;;;20.90;99.10;;;;;;5228009;28;20040;-75
2022/05/05 12:20:14;;;;;;;5.30;1.50;;;20.70;97.60;;;;;;5227804;28;20021;-76
2022/05/05 12:22:54;;;;;;;6.43;1.80;;;21.10;96.10;;;;;;5227866;28;20388;-74
2022/05/05 12:25:26;;;;;;;4.65;1.90;;;21.40;96.10;;;;;;5227799;28;20021;-73
2022/05/05 12:28:00;;;;;;;3.40;1.80;;;21.00;95.50;;;;;;5227329;28;20056;-74
2022/05/05 12:30:39;;;;;;;4.22;1.60;;;20.80;93.40;;;;;;5227779;28;20033;-74
2022/05/05 12:33:17;;;;;;;7.22;1.80;;;21.40;94.20;;;;;;5226417;28;20057;-73
2022/05/05 12:35:49;;;;;;;3.03;1.70;;;21.60;91.60;;;;;;5227819;28;20025;-74
2022/05/05 12:38:20;;;;;;;6.35;2.40;;;21.50;89.60;;;;;;5227585;28;20021;-75
2022/05/05 12:41:07;;;;;;;32.95;2.72;;;21.20;86.90;;;;;;5228075;28;20373;-74
2022/05/05 12:43:39;;;;;;;75.07;7.60;;;21.70;88.80;;;;;;5227466;28;20040;-74
2022/05/05 12:46:14;;;;;;;12.15;2.45;;;21.10;87.50;;;;;;5227456;28;20017;-74
2022/05/05 12:48:51;;;;;;;8.68;2.30;;;20.90;86.80;;;;;;5227478;28;20032;-74
2022/05/05 12:51:30;;;;;;;19.25;3.15;;;20.70;87.70;;;;;;5227450;28;20512;-74
2022/05/05 12:59:46;;;;;;;6.75;1.60;;;20.80;87.50;;;;;;5227749;28;20260;-73
2022/05/05 13:02:17;;;;;;;2.55;1.17;;;20.40;82.10;;;;;;5230428;28;20115;-74
2022/05/05 13:04:48;;;;;;;3.08;1.20;;;21.10;82.00;;;;;;5231607;28;20171;-78
2022/05/05 13:07:19;;;;;;;3.25;1.20;;;20.80;80.90;;;;;;5231837;28;20018;-74
2022/05/05 13:09:51;;;;;;;7.03;1.52;;;21.00;81.70;;;;;;5231605;28;20044;-74
2022/05/05 13:12:22;;;;;;;5.63;1.67;;;21.00;80.80;;;;;;5231512;28;20100;-75
2022/05/05 13:14:52;;;;;;;6.03;1.70;;;20.70;84.20;;;;;;5231280;28;20155;-75
2022/05/05 13:17:23;;;;;;;3.95;1.38;;;20.80;82.70;;;;;;5231331;28;20033;-74
2022/05/05 13:19:54;;;;;;;2.17;1.30;;;20.80;82.00;;;;;;5231451;28;20036;-83
2022/05/05 13:22:25;;;;;;;3.08;1.50;;;20.90;82.70;;;;;;5231077;28;20069;-79
2022/05/05 13:24:56;;;;;;;2.25;1.35;;;21.30;86.80;;;;;;5231271;28;20052;-74
2022/05/05 13:27:26;;;;;;;2.67;1.20;;;21.10;83.10;;;;;;5230825;28;20045;-78
2022/05/05 13:29:57;;;;;;;2.53;1.80;;;21.10;83.80;;;;;;5231260;28;20036;-77
2022/05/05 13:32:28;;;;;;;4.32;1.85;;;21.20;82.00;;;;;;5230485;28;20029;-76
2022/05/05 13:34:59;;;;;;;4.30;2.08;;;20.80;79.80;;;;;;5231082;28;20036;-76
2022/05/05 13:37:30;;;;;;;4.65;1.58;;;21.00;81.80;;;;;;5230865;28;20028;-73
2022/05/05 13:40:01;;;;;;;4.88;1.55;;;20.90;80.10;;;;;;5230946;28;20021;-78
2022/05/05 13:42:32;;;;;;;6.90;1.70;;;20.50;83.50;;;;;;5230886;28;20111;-73
2022/05/05 13:45:03;;;;;;;2.13;1.50;;;20.70;80.90;;;;;;5230762;28;20056;-73
2022/05/05 13:47:35;;;;;;;4.75;1.67;;;20.70;82.20;;;;;;5230927;28;20098;-74
2022/05/05 13:50:07;;;;;;;5.25;1.85;;;21.10;84.50;;;;;;5230933;28;20016;-73
2022/05/05 13:52:40;;;;;;;1.63;1.20;;;21.20;79.60;;;;;;5230596;28;20032;-73
2022/05/05 13:55:12;;;;;;;11.55;1.70;;;20.60;80.90;;;;;;5230832;28;20100;-74
2022/05/05 13:57:43;;;;;;;3.72;1.40;;;20.60;83.50;;;;;;5227910;28;20049;-78
2022/05/05 14:00:14;;;;;;;4.47;1.33;;;20.30;81.40;;;;;;5223113;28;20057;-78
2022/05/05 14:02:46;;;;;;;5.78;1.00;;;20.20;80.30;;;;;;5212329;28;20378;-79
2022/05/05 14:05:17;;;;;;;2.15;1.30;;;20.30;81.20;;;;;;5219057;28;20040;-75
2022/05/05 14:13:27;;;;;;;12.55;2.17;;;20.20;81.00;;;;;;5215707;28;20040;-74
2022/05/05 14:15:58;;;;;;;7.85;2.00;;;20.60;82.60;;;;;;5227394;28;20029;-76